Longmire, Washington
Current Conditions -  °F | °C
As of 6:34 AM on Sunday 21 Dec 2014 (Local Time) from KTCM Reporting Station
Broken Clouds Broken Clouds  
Wind Chill: 50°   Ceiling: 18000
Heat Index: 50°   Visibility: 10mi
Dew Point: 50°   Wind: 12mph
Humidity: 100%   Direction: 210°SSW
Pressure: 29.84"   Gusts: NA
Location:  46.75°N, 121.81°W
Report Text: KTCM 211434Z AUTO 21010KT 10SM SCT023 SCT031 BKN180 10/10 A2984 RMK AO2 RAB25E34 CIG 024 RWY34
Loading
Personal Weather Stations






























Interactive Weather Map New forecast layout! Learn more

10-Day Weather Forecast

Advertisements
Track Severe Weather on mobile